Apollon Hellas — SWFP — position and weather

sailwx.info

Track history (hours):
 
Tides and Currents Weather Stations Pressure Air Temp Water Temp Dewpoint Dewpoint Depression Visibility Wind Speed Wind Dir Waves Ship Positions

Apollon Hellas

Last reported at 2017-Sep-19 16:09 UTC. Time now 2017-Sep-19 20:47 UTC.
Position N 37°57' E 023°39'.

Length 92 m; draft 4 m.

Type: Ship. MMSI: 237002600.

Date/timePositionNaut miles runAvg speedWind from/ knotsBaromVisibWave heightAir tempDewpointWater temp
2017-Sep-19 16:09N 37°57' E 023°39'0 0.2
2017-Sep-19 16:00N 37°57' E 023°38'612.2
2017-Sep-19 15:30N 37°52' E 023°33'714.5
2017-Sep-19 15:00N 37°47' E 023°27'3 5.2
2017-Sep-19 14:31N 37°45' E 023°25'0 0.0
2017-Sep-19 14:00N 37°45' E 023°25'4 8.5
2017-Sep-19 13:31N 37°48' E 023°28'714.3
2017-Sep-19 13:01N 37°53' E 023°35'4 8.9
2017-Sep-19 12:31N 37°57' E 023°38'0 0.0
2017-Sep-19 12:01N 37°57' E 023°38'0 0.0
2017-Sep-19 11:31N 37°57' E 023°38'0 0.1
2017-Sep-19 11:01N 37°57' E 023°38'613.0
2017-Sep-19 10:30N 37°52' E 023°33'914.4
2017-Sep-19 09:54N 37°46' E 023°25'1 3.2
2017-Sep-19 09:30N 37°45' E 023°25'2 4.7
2017-Sep-19 09:00N 37°47' E 023°26'714.4
2017-Sep-19 08:30N 37°52' E 023°33'713.0
2017-Sep-19 08:00N 37°57' E 023°38'0 0.0
2017-Sep-19 07:30N 37°57' E 023°38'2 3.1
2017-Sep-19 07:00N 37°56' E 023°37'714.2
2017-Sep-19 06:30N 37°50' E 023°31'714.2
2017-Sep-19 06:01N 37°45' E 023°25'1 1.9
2017-Sep-19 05:30N 37°45' E 023°25'5 9.6
2017-Sep-19 05:00N 37°49' E 023°29'714.3
2017-Sep-19 04:30N 37°54' E 023°35'4 7.9
2017-Sep-19 04:00N 37°57' E 023°38'0 0.0
2017-Sep-19 03:30N 37°57' E 023°38'0 0.0
2017-Sep-18 18:09N 37°57' E 023°38'0 0.6
2017-Sep-18 18:00N 37°57' E 023°38'611.7
2017-Sep-18 17:30N 37°52' E 023°33'714.4
2017-Sep-18 17:01N 37°47' E 023°27'3 5.6
2017-Sep-18 16:30N 37°45' E 023°25'510.9
2017-Sep-18 16:01N 37°49' E 023°30'714.3
2017-Sep-18 15:31N 37°55' E 023°35'3 6.4
2017-Sep-18 15:00N 37°57' E 023°38'0 0.0
2017-Sep-18 14:30N 37°57' E 023°38'0 0.0
2017-Sep-18 14:00N 37°57' E 023°38'0 0.0
2017-Sep-18 13:30N 37°57' E 023°38'3 5.6
2017-Sep-18 13:00N 37°55' E 023°36'714.4
2017-Sep-18 12:30N 37°49' E 023°30'611.7
2017-Sep-18 12:00N 37°45' E 023°25'4 7.3
2017-Sep-18 11:30N 37°41' E 023°25'612.6
2017-Sep-18 11:00N 37°35' E 023°24'510.4
2017-Sep-18 10:29N 37°30' E 023°27'0 0.1
2017-Sep-18 09:53N 37°30' E 023°27'410.1
2017-Sep-18 09:30N 37°33' E 023°25'5 9.8
2017-Sep-18 09:00N 37°38' E 023°25'612.8
2017-Sep-18 08:30N 37°45' E 023°25'3 6.1
2017-Sep-18 08:01N 37°47' E 023°27'714.5
2017-Sep-18 07:30N 37°53' E 023°34'611.3
2017-Sep-18 07:00N 37°57' E 023°38'0 0.0
2017-Sep-18 06:30N 37°57' E 023°38'0 0.0
2017-Sep-17 20:27N 37°57' E 023°38'3 6.9
2017-Sep-17 20:01N 37°55' E 023°35'714.3
2017-Sep-17 19:31N 37°49' E 023°30'611.2
2017-Sep-17 19:00N 37°45' E 023°25'0 0.0
2017-Sep-17 18:30N 37°45' E 023°25'510.4
2017-Sep-17 18:00N 37°49' E 023°29'714.7
2017-Sep-17 17:30N 37°55' E 023°35'3 6.6
2017-Sep-17 17:00N 37°57' E 023°38'3 6.5
2017-Sep-17 16:31N 37°55' E 023°35'714.2
2017-Sep-17 16:00N 37°49' E 023°30'510.9
2017-Sep-17 15:30N 37°45' E 023°25'0 0.0
2017-Sep-17 15:00N 37°45' E 023°25'713.1
2017-Sep-17 14:30N 37°38' E 023°25'3 6.9
2017-Sep-17 14:00N 37°35' E 023°24'5 1.3
2017-Sep-17 09:47N 37°30' E 023°27'2 8.4
2017-Sep-17 09:30N 37°32' E 023°25'4 8.6
2017-Sep-17 09:00N 37°36' E 023°25'714.6
2017-Sep-17 08:30N 37°44' E 023°25'3 6.5
2017-Sep-17 08:01N 37°47' E 023°26'714.4
2017-Sep-17 07:31N 37°51' E 023°33'713.6
2017-Sep-17 07:01N 37°57' E 023°38'0 0.2
2017-Sep-17 06:31N 37°57' E 023°38'0 0.0
2017-Sep-16 15:33N 37°57' E 023°38'0 0.1
2017-Sep-16 15:30N 37°57' E 023°38'4 7.3
2017-Sep-16 15:00N 37°54' E 023°35'714.4
2017-Sep-16 14:31N 37°49' E 023°29'510.0
2017-Sep-16 14:00N 37°45' E 023°25'4 7.2
2017-Sep-16 13:30N 37°41' E 023°25'710.7
2017-Sep-16 12:49N 37°34' E 023°25'412.6
2017-Sep-16 12:30N 37°30' E 023°27'0 0.0
2017-Sep-16 10:43N 37°30' E 023°27'0 0.0
2017-Sep-16 10:30N 37°30' E 023°27'5 9.7
2017-Sep-16 09:57N 37°35' E 023°24'510.7
2017-Sep-16 09:31N 37°39' E 023°25'510.7
2017-Sep-16 09:01N 37°45' E 023°25'2 4.8
2017-Sep-16 08:30N 37°47' E 023°26'714.3
2017-Sep-16 08:00N 37°52' E 023°33'613.0
2017-Sep-16 07:30N 37°57' E 023°38'0 0.1
2017-Sep-16 07:00N 37°57' E 023°38'4 8.9
2017-Sep-16 06:30N 37°54' E 023°34'714.5
2017-Sep-16 06:01N 37°48' E 023°28'4 8.2
2017-Sep-16 05:30N 37°45' E 023°25'5 9.5
2017-Sep-16 05:00N 37°40' E 023°25'7 9.5
2017-Sep-16 04:17N 37°33' E 023°25'312.5
2017-Sep-16 04:00N 37°30' E 023°27'0 0.3
2017-Sep-16 03:30N 37°30' E 023°27'0 0.0
2017-Sep-16 03:00N 37°30' E 023°27'0 0.0
2017-Sep-16 02:10N 37°30' E 023°27'0 0.0
2017-Sep-16 02:00N 37°30' E 023°27'0 0.0
2017-Sep-16 01:30N 37°30' E 023°27'0 0.0
2017-Sep-15 22:54N 37°30' E 023°27'0 0.0
2017-Sep-15 20:35N 37°30' E 023°27'0 0.0
2017-Sep-15 20:06N 37°30' E 023°27'0 0.0
2017-Sep-15 19:49N 37°30' E 023°27'0 0.0
2017-Sep-15 19:30N 37°30' E 023°27'0 0.0
2017-Sep-15 18:59N 37°30' E 023°27'0 0.0
2017-Sep-15 18:30N 37°30' E 023°27'0 0.0
2017-Sep-15 18:00N 37°30' E 023°27'4 8.1
2017-Sep-15 17:30N 37°34' E 023°25'4 8.9
2017-Sep-15 17:00N 37°38' E 023°25'713.4
2017-Sep-15 16:30N 37°45' E 023°25'3 5.9
2017-Sep-15 16:00N 37°47' E 023°27'714.3
2017-Sep-15 15:30N 37°52' E 023°33'611.7
2017-Sep-15 15:00N 37°57' E 023°38'0 0.0
2017-Sep-15 14:30N 37°57' E 023°38'2 4.9
2017-Sep-15 14:00N 37°55' E 023°36'714.5
2017-Sep-15 13:30N 37°50' E 023°30'612.3
2017-Sep-15 13:00N 37°45' E 023°25'2 4.4
2017-Sep-15 12:30N 37°47' E 023°26'714.3
2017-Sep-15 12:00N 37°52' E 023°33'713.3
2017-Sep-15 11:30N 37°57' E 023°38'1 1.4
2017-Sep-15 11:00N 37°56' E 023°38'714.2
2017-Sep-15 10:30N 37°51' E 023°32'714.6
2017-Sep-15 10:00N 37°46' E 023°25'1 2.7
2017-Sep-15 09:31N 37°45' E 023°25'510.8
2017-Sep-15 09:00N 37°49' E 023°29'714.2
2017-Sep-15 08:30N 37°55' E 023°35'3 6.5
2017-Sep-15 08:00N 37°57' E 023°38'0 0.0
2017-Sep-15 07:30N 37°57' E 023°38'4 8.0
2017-Sep-15 07:01N 37°54' E 023°35'714.5
2017-Sep-15 06:31N 37°48' E 023°29'5 9.0
2017-Sep-15 06:00N 37°45' E 023°25'2 4.4
2017-Sep-15 05:31N 37°47' E 023°26'714.4
2017-Sep-15 05:01N 37°52' E 023°33'713.3
2017-Sep-15 04:30N 37°57' E 023°38'0 0.1
2017-Sep-15 04:00N 37°57' E 023°38'0 0.0
2017-Sep-14 18:39N 37°57' E 023°38'0 0.6
2017-Sep-14 18:30N 37°57' E 023°38'611.2
2017-Sep-14 18:00N 37°53' E 023°34'714.4
2017-Sep-14 17:30N 37°47' E 023°27'3 6.0
2017-Sep-14 17:00N 37°45' E 023°25'0 0.1
2017-Sep-14 16:30N 37°45' E 023°25'611.6
2017-Sep-14 16:01N 37°49' E 023°30'714.1
2017-Sep-14 15:31N 37°55' E 023°36'3 6.0
2017-Sep-14 15:01N 37°57' E 023°38'0 0.0
2017-Sep-14 14:30N 37°57' E 023°38'0 0.0
2017-Sep-14 14:01N 37°57' E 023°38'0 0.0
2017-Sep-14 13:31N 37°57' E 023°38'3 5.8
2017-Sep-14 13:00N 37°55' E 023°36'714.8
2017-Sep-14 12:30N 37°49' E 023°30'611.0
2017-Sep-14 12:00N 37°45' E 023°25'4 7.9
2017-Sep-14 11:30N 37°41' E 023°25'810.5
2017-Sep-14 10:46N 37°33' E 023°25'2 1.8
2017-Sep-14 09:38N 37°31' E 023°25'214.1
2017-Sep-14 09:30N 37°33' E 023°25'4 8.0
2017-Sep-14 09:00N 37°37' E 023°25'714.7
2017-Sep-14 08:30N 37°44' E 023°25'3 6.4
2017-Sep-14 08:01N 37°47' E 023°26'714.2
2017-Sep-14 07:31N 37°52' E 023°33'612.8
2017-Sep-14 07:00N 37°57' E 023°38'0 0.1
2017-Sep-14 06:30N 37°57' E 023°38'0 0.0
2017-Sep-13 18:35N 37°57' E 023°38'0 0.3
2017-Sep-13 18:29N 37°57' E 023°38'3 6.9
2017-Sep-13 18:00N 37°55' E 023°35'714.7
2017-Sep-13 17:30N 37°49' E 023°29'5 5.9
2017-Sep-13 16:37N 37°45' E 023°25'1 5.5
2017-Sep-13 16:30N 37°45' E 023°25'713.9
2017-Sep-13 16:00N 37°50' E 023°31'714.3
2017-Sep-13 15:31N 37°56' E 023°37'2 1.7
2017-Sep-13 14:31N 37°57' E 023°38'0 0.0
2017-Sep-13 14:30N 37°57' E 023°38'0 0.0
2017-Sep-13 14:00N 37°57' E 023°38'0 0.0
2017-Sep-13 13:30N 37°57' E 023°38'4 8.9
2017-Sep-13 13:00N 37°54' E 023°35'714.6
2017-Sep-13 12:30N 37°48' E 023°28'4 7.7
2017-Sep-13 11:58N 37°45' E 023°25'711.6
2017-Sep-13 11:24N 37°38' E 023°25'8 5.6
2017-Sep-13 10:00N 37°30' E 023°27'510.4
2017-Sep-13 09:30N 37°35' E 023°24'611.6
2017-Sep-13 09:00N 37°40' E 023°25'4 8.4
2017-Sep-13 08:30N 37°45' E 023°25'5 9.3
2017-Sep-13 08:00N 37°48' E 023°29'714.2
2017-Sep-13 07:30N 37°53' E 023°35'4 7.7
2017-Sep-13 06:59N 37°57' E 023°39'0 0.0
2017-Sep-13 06:21N 37°57' E 023°39'0 0.0
2017-Sep-12 14:38N 37°57' E 023°39'0 0.0
2017-Sep-12 14:30N 37°57' E 023°39'611.8
2017-Sep-12 14:00N 37°52' E 023°33'714.4
2017-Sep-12 13:30N 37°47' E 023°27'3 5.5
2017-Sep-12 13:00N 37°45' E 023°25'3 6.8
2017-Sep-12 12:30N 37°48' E 023°27'714.4
2017-Sep-12 12:00N 37°53' E 023°34'510.6
2017-Sep-12 11:30N 37°57' E 023°38'0 0.1
2017-Sep-12 11:00N 37°57' E 023°38'612.1
2017-Sep-12 10:31N 37°52' E 023°33'714.4
2017-Sep-12 10:01N 37°47' E 023°27'3 5.3
2017-Sep-12 09:30N 37°45' E 023°25'3 5.9
2017-Sep-12 09:00N 37°47' E 023°27'714.5
2017-Sep-12 08:30N 37°52' E 023°34'611.4
2017-Sep-12 08:00N 37°57' E 023°38'0 0.0
2017-Sep-12 07:30N 37°57' E 023°38'3 5.2
2017-Sep-12 07:00N 37°55' E 023°36'714.2
2017-Sep-12 06:30N 37°49' E 023°30'612.1
2017-Sep-12 06:00N 37°45' E 023°25'0 0.5
2017-Sep-12 05:31N 37°45' E 023°25'713.3
2017-Sep-12 05:00N 37°50' E 023°31'714.4
2017-Sep-12 04:31N 37°55' E 023°36'2 4.3
2017-Sep-12 04:00N 37°57' E 023°38'0 0.0
2017-Sep-12 03:30N 37°57' E 023°38'0 0.0
2017-Sep-11 18:35N 37°57' E 023°38'0 0.0
2017-Sep-11 18:30N 37°57' E 023°38'3 5.2
2017-Sep-11 18:00N 37°55' E 023°36'714.5
2017-Sep-11 17:31N 37°49' E 023°30'611.5
2017-Sep-11 17:00N 37°45' E 023°25'0 0.1
2017-Sep-11 16:30N 37°45' E 023°25'611.0
2017-Sep-11 16:00N 37°49' E 023°30'714.4
2017-Sep-11 15:30N 37°55' E 023°35'3 6.4
2017-Sep-11 15:00N 37°57' E 023°38'0 0.0
2017-Sep-11 14:30N 37°57' E 023°38'0 0.0
2017-Sep-11 14:00N 37°57' E 023°38'0 0.0
2017-Sep-11 13:30N 37°57' E 023°38'3 5.2
2017-Sep-11 13:01N 37°55' E 023°36'714.5
2017-Sep-11 12:30N 37°49' E 023°30'612.0
2017-Sep-11 12:00N 37°45' E 023°25'4 8.0
2017-Sep-11 11:30N 37°41' E 023°25'710.0
2017-Sep-11 10:50N 37°34' E 023°24'4 4.9
2017-Sep-11 09:56N 37°30' E 023°27'3 7.5
2017-Sep-11 09:30N 37°33' E 023°25'4 8.2
2017-Sep-11 09:00N 37°37' E 023°25'714.5
2017-Sep-11 08:30N 37°44' E 023°25'4 7.1
2017-Sep-11 08:00N 37°47' E 023°27'714.5
2017-Sep-11 07:30N 37°53' E 023°33'611.4
2017-Sep-11 07:01N 37°57' E 023°38'0 0.0
2017-Sep-11 06:30N 37°57' E 023°38'0 0.0
2017-Sep-10 20:31N 37°57' E 023°38'0 0.6
2017-Sep-10 20:30N 37°57' E 023°38'3 6.1
2017-Sep-10 20:01N 37°55' E 023°36'714.3
2017-Sep-10 19:30N 37°49' E 023°30'611.0
2017-Sep-10 19:00N 37°45' E 023°25'0 0.0
2017-Sep-10 18:30N 37°45' E 023°25'510.6
2017-Sep-10 18:00N 37°49' E 023°29'714.6
2017-Sep-10 17:30N 37°54' E 023°36'3 6.5
2017-Sep-10 17:00N 37°57' E 023°39'3 6.2
2017-Sep-10 16:31N 37°55' E 023°36'714.3
2017-Sep-10 16:01N 37°49' E 023°30'611.1
2017-Sep-10 15:30N 37°45' E 023°25'0 0.0
2017-Sep-10 15:00N 37°45' E 023°25'10 9.9
2017-Sep-10 14:00N 37°35' E 023°24'510.8
2017-Sep-10 13:30N 37°30' E 023°27'0 0.2
2017-Sep-10 13:01N 37°30' E 023°27'0 0.0
2017-Sep-10 12:30N 37°30' E 023°27'0 0.0
2017-Sep-10 12:00N 37°30' E 023°27'0 0.0
2017-Sep-10 11:30N 37°30' E 023°27'0 0.0
2017-Sep-10 11:00N 37°30' E 023°27'0 0.0
2017-Sep-10 10:30N 37°30' E 023°27'0 0.0
2017-Sep-10 10:00N 37°30' E 023°27'3 5.5
2017-Sep-10 09:30N 37°32' E 023°25'4 8.0
2017-Sep-10 09:01N 37°36' E 023°25'714.8
2017-Sep-10 08:30N 37°44' E 023°25'3 6.3
2017-Sep-10 08:00N 37°47' E 023°26'714.5
2017-Sep-10 07:30N 37°52' E 023°33'713.4
2017-Sep-10 07:00N 37°57' E 023°38'0 0.0
2017-Sep-10 06:30N 37°57' E 023°38'  
Track history (hours):
 
Tides and Currents Weather Stations Pressure Air Temp Water Temp Dewpoint Dewpoint Depression Visibility Wind Speed Wind Dir Waves Ship Positions

Apollon Hellas

Last reported at 2017-Sep-19 16:09 UTC. Time now 2017-Sep-19 20:47 UTC.
Position N 37°57' E 023°39'.

Length 92 m; draft 4 m.

Type: Ship. MMSI: 237002600.

Date/timePositionNaut miles runAvg speedWind from/ knotsBaromVisibWave heightAir tempDewpointWater temp
2017-Sep-19 16:09N 37°57' E 023°39'0 0.2
2017-Sep-19 16:00N 37°57' E 023°38'612.2
2017-Sep-19 15:30N 37°52' E 023°33'714.5
2017-Sep-19 15:00N 37°47' E 023°27'3 5.2
2017-Sep-19 14:31N 37°45' E 023°25'0 0.0
2017-Sep-19 14:00N 37°45' E 023°25'4 8.5
2017-Sep-19 13:31N 37°48' E 023°28'714.3
2017-Sep-19 13:01N 37°53' E 023°35'4 8.9
2017-Sep-19 12:31N 37°57' E 023°38'0 0.0
2017-Sep-19 12:01N 37°57' E 023°38'0 0.0
2017-Sep-19 11:31N 37°57' E 023°38'0 0.1
2017-Sep-19 11:01N 37°57' E 023°38'613.0
2017-Sep-19 10:30N 37°52' E 023°33'914.4
2017-Sep-19 09:54N 37°46' E 023°25'1 3.2
2017-Sep-19 09:30N 37°45' E 023°25'2 4.7
2017-Sep-19 09:00N 37°47' E 023°26'714.4
2017-Sep-19 08:30N 37°52' E 023°33'713.0
2017-Sep-19 08:00N 37°57' E 023°38'0 0.0
2017-Sep-19 07:30N 37°57' E 023°38'2 3.1
2017-Sep-19 07:00N 37°56' E 023°37'714.2
2017-Sep-19 06:30N 37°50' E 023°31'714.2
2017-Sep-19 06:01N 37°45' E 023°25'1 1.9
2017-Sep-19 05:30N 37°45' E 023°25'5 9.6
2017-Sep-19 05:00N 37°49' E 023°29'714.3
2017-Sep-19 04:30N 37°54' E 023°35'4 7.9
2017-Sep-19 04:00N 37°57' E 023°38'0 0.0
2017-Sep-19 03:30N 37°57' E 023°38'0 0.0
2017-Sep-18 18:09N 37°57' E 023°38'0 0.6
2017-Sep-18 18:00N 37°57' E 023°38'611.7
2017-Sep-18 17:30N 37°52' E 023°33'714.4
2017-Sep-18 17:01N 37°47' E 023°27'3 5.6
2017-Sep-18 16:30N 37°45' E 023°25'510.9
2017-Sep-18 16:01N 37°49' E 023°30'714.3
2017-Sep-18 15:31N 37°55' E 023°35'3 6.4
2017-Sep-18 15:00N 37°57' E 023°38'0 0.0
2017-Sep-18 14:30N 37°57' E 023°38'0 0.0
2017-Sep-18 14:00N 37°57' E 023°38'0 0.0
2017-Sep-18 13:30N 37°57' E 023°38'3 5.6
2017-Sep-18 13:00N 37°55' E 023°36'714.4
2017-Sep-18 12:30N 37°49' E 023°30'611.7
2017-Sep-18 12:00N 37°45' E 023°25'4 7.3
2017-Sep-18 11:30N 37°41' E 023°25'612.6
2017-Sep-18 11:00N 37°35' E 023°24'510.4
2017-Sep-18 10:29N 37°30' E 023°27'0 0.1
2017-Sep-18 09:53N 37°30' E 023°27'410.1
2017-Sep-18 09:30N 37°33' E 023°25'5 9.8
2017-Sep-18 09:00N 37°38' E 023°25'612.8
2017-Sep-18 08:30N 37°45' E 023°25'3 6.1
2017-Sep-18 08:01N 37°47' E 023°27'714.5
2017-Sep-18 07:30N 37°53' E 023°34'611.3
2017-Sep-18 07:00N 37°57' E 023°38'0 0.0
2017-Sep-18 06:30N 37°57' E 023°38'0 0.0
2017-Sep-17 20:27N 37°57' E 023°38'3 6.9
2017-Sep-17 20:01N 37°55' E 023°35'714.3
2017-Sep-17 19:31N 37°49' E 023°30'611.2
2017-Sep-17 19:00N 37°45' E 023°25'0 0.0
2017-Sep-17 18:30N 37°45' E 023°25'510.4
2017-Sep-17 18:00N 37°49' E 023°29'714.7
2017-Sep-17 17:30N 37°55' E 023°35'3 6.6
2017-Sep-17 17:00N 37°57' E 023°38'3 6.5
2017-Sep-17 16:31N 37°55' E 023°35'714.2
2017-Sep-17 16:00N 37°49' E 023°30'510.9
2017-Sep-17 15:30N 37°45' E 023°25'0 0.0
2017-Sep-17 15:00N 37°45' E 023°25'713.1
2017-Sep-17 14:30N 37°38' E 023°25'3 6.9
2017-Sep-17 14:00N 37°35' E 023°24'5 1.3
2017-Sep-17 09:47N 37°30' E 023°27'2 8.4
2017-Sep-17 09:30N 37°32' E 023°25'4 8.6
2017-Sep-17 09:00N 37°36' E 023°25'714.6
2017-Sep-17 08:30N 37°44' E 023°25'3 6.5
2017-Sep-17 08:01N 37°47' E 023°26'714.4
2017-Sep-17 07:31N 37°51' E 023°33'713.6
2017-Sep-17 07:01N 37°57' E 023°38'0 0.2
2017-Sep-17 06:31N 37°57' E 023°38'0 0.0
2017-Sep-16 15:33N 37°57' E 023°38'0 0.1
2017-Sep-16 15:30N 37°57' E 023°38'4 7.3
2017-Sep-16 15:00N 37°54' E 023°35'714.4
2017-Sep-16 14:31N 37°49' E 023°29'510.0
2017-Sep-16 14:00N 37°45' E 023°25'4 7.2
2017-Sep-16 13:30N 37°41' E 023°25'710.7
2017-Sep-16 12:49N 37°34' E 023°25'412.6
2017-Sep-16 12:30N 37°30' E 023°27'0 0.0
2017-Sep-16 10:43N 37°30' E 023°27'0 0.0
2017-Sep-16 10:30N 37°30' E 023°27'5 9.7
2017-Sep-16 09:57N 37°35' E 023°24'510.7
2017-Sep-16 09:31N 37°39' E 023°25'510.7
2017-Sep-16 09:01N 37°45' E 023°25'2 4.8
2017-Sep-16 08:30N 37°47' E 023°26'714.3
2017-Sep-16 08:00N 37°52' E 023°33'613.0
2017-Sep-16 07:30N 37°57' E 023°38'0 0.1
2017-Sep-16 07:00N 37°57' E 023°38'4 8.9
2017-Sep-16 06:30N 37°54' E 023°34'714.5
2017-Sep-16 06:01N 37°48' E 023°28'4 8.2
2017-Sep-16 05:30N 37°45' E 023°25'5 9.5
2017-Sep-16 05:00N 37°40' E 023°25'7 9.5
2017-Sep-16 04:17N 37°33' E 023°25'312.5
2017-Sep-16 04:00N 37°30' E 023°27'0 0.3
2017-Sep-16 03:30N 37°30' E 023°27'0 0.0
2017-Sep-16 03:00N 37°30' E 023°27'0 0.0
2017-Sep-16 02:10N 37°30' E 023°27'0 0.0
2017-Sep-16 02:00N 37°30' E 023°27'0 0.0
2017-Sep-16 01:30N 37°30' E 023°27'0 0.0
2017-Sep-15 22:54N 37°30' E 023°27'0 0.0
2017-Sep-15 20:35N 37°30' E 023°27'0 0.0
2017-Sep-15 20:06N 37°30' E 023°27'0 0.0
2017-Sep-15 19:49N 37°30' E 023°27'0 0.0
2017-Sep-15 19:30N 37°30' E 023°27'0 0.0
2017-Sep-15 18:59N 37°30' E 023°27'0 0.0
2017-Sep-15 18:30N 37°30' E 023°27'0 0.0
2017-Sep-15 18:00N 37°30' E 023°27'4 8.1
2017-Sep-15 17:30N 37°34' E 023°25'4 8.9
2017-Sep-15 17:00N 37°38' E 023°25'713.4
2017-Sep-15 16:30N 37°45' E 023°25'3 5.9
2017-Sep-15 16:00N 37°47' E 023°27'714.3
2017-Sep-15 15:30N 37°52' E 023°33'611.7
2017-Sep-15 15:00N 37°57' E 023°38'0 0.0
2017-Sep-15 14:30N 37°57' E 023°38'2 4.9
2017-Sep-15 14:00N 37°55' E 023°36'714.5
2017-Sep-15 13:30N 37°50' E 023°30'612.3
2017-Sep-15 13:00N 37°45' E 023°25'2 4.4
2017-Sep-15 12:30N 37°47' E 023°26'714.3
2017-Sep-15 12:00N 37°52' E 023°33'713.3
2017-Sep-15 11:30N 37°57' E 023°38'1 1.4
2017-Sep-15 11:00N 37°56' E 023°38'714.2
2017-Sep-15 10:30N 37°51' E 023°32'714.6
2017-Sep-15 10:00N 37°46' E 023°25'1 2.7
2017-Sep-15 09:31N 37°45' E 023°25'510.8
2017-Sep-15 09:00N 37°49' E 023°29'714.2
2017-Sep-15 08:30N 37°55' E 023°35'3 6.5
2017-Sep-15 08:00N 37°57' E 023°38'0 0.0
2017-Sep-15 07:30N 37°57' E 023°38'4 8.0
2017-Sep-15 07:01N 37°54' E 023°35'714.5
2017-Sep-15 06:31N 37°48' E 023°29'5 9.0
2017-Sep-15 06:00N 37°45' E 023°25'2 4.4
2017-Sep-15 05:31N 37°47' E 023°26'714.4
2017-Sep-15 05:01N 37°52' E 023°33'713.3
2017-Sep-15 04:30N 37°57' E 023°38'0 0.1
2017-Sep-15 04:00N 37°57' E 023°38'0 0.0
2017-Sep-14 18:39N 37°57' E 023°38'0 0.6
2017-Sep-14 18:30N 37°57' E 023°38'611.2
2017-Sep-14 18:00N 37°53' E 023°34'714.4
2017-Sep-14 17:30N 37°47' E 023°27'3 6.0
2017-Sep-14 17:00N 37°45' E 023°25'0 0.1
2017-Sep-14 16:30N 37°45' E 023°25'611.6
2017-Sep-14 16:01N 37°49' E 023°30'714.1
2017-Sep-14 15:31N 37°55' E 023°36'3 6.0
2017-Sep-14 15:01N 37°57' E 023°38'0 0.0
2017-Sep-14 14:30N 37°57' E 023°38'0 0.0
2017-Sep-14 14:01N 37°57' E 023°38'0 0.0
2017-Sep-14 13:31N 37°57' E 023°38'3 5.8
2017-Sep-14 13:00N 37°55' E 023°36'714.8
2017-Sep-14 12:30N 37°49' E 023°30'611.0
2017-Sep-14 12:00N 37°45' E 023°25'4 7.9
2017-Sep-14 11:30N 37°41' E 023°25'810.5
2017-Sep-14 10:46N 37°33' E 023°25'2 1.8
2017-Sep-14 09:38N 37°31' E 023°25'214.1
2017-Sep-14 09:30N 37°33' E 023°25'4 8.0
2017-Sep-14 09:00N 37°37' E 023°25'714.7
2017-Sep-14 08:30N 37°44' E 023°25'3 6.4
2017-Sep-14 08:01N 37°47' E 023°26'714.2
2017-Sep-14 07:31N 37°52' E 023°33'612.8
2017-Sep-14 07:00N 37°57' E 023°38'0 0.1
2017-Sep-14 06:30N 37°57' E 023°38'0 0.0
2017-Sep-13 18:35N 37°57' E 023°38'0 0.3
2017-Sep-13 18:29N 37°57' E 023°38'3 6.9
2017-Sep-13 18:00N 37°55' E 023°35'714.7
2017-Sep-13 17:30N 37°49' E 023°29'5 5.9
2017-Sep-13 16:37N 37°45' E 023°25'1 5.5
2017-Sep-13 16:30N 37°45' E 023°25'713.9
2017-Sep-13 16:00N 37°50' E 023°31'714.3
2017-Sep-13 15:31N 37°56' E 023°37'2 1.7
2017-Sep-13 14:31N 37°57' E 023°38'0 0.0
2017-Sep-13 14:30N 37°57' E 023°38'0 0.0
2017-Sep-13 14:00N 37°57' E 023°38'0 0.0
2017-Sep-13 13:30N 37°57' E 023°38'4 8.9
2017-Sep-13 13:00N 37°54' E 023°35'714.6
2017-Sep-13 12:30N 37°48' E 023°28'4 7.7
2017-Sep-13 11:58N 37°45' E 023°25'711.6
2017-Sep-13 11:24N 37°38' E 023°25'8 5.6
2017-Sep-13 10:00N 37°30' E 023°27'510.4
2017-Sep-13 09:30N 37°35' E 023°24'611.6
2017-Sep-13 09:00N 37°40' E 023°25'4 8.4
2017-Sep-13 08:30N 37°45' E 023°25'5 9.3
2017-Sep-13 08:00N 37°48' E 023°29'714.2
2017-Sep-13 07:30N 37°53' E 023°35'4 7.7
2017-Sep-13 06:59N 37°57' E 023°39'0 0.0
2017-Sep-13 06:21N 37°57' E 023°39'0 0.0
2017-Sep-12 14:38N 37°57' E 023°39'0 0.0
2017-Sep-12 14:30N 37°57' E 023°39'611.8
2017-Sep-12 14:00N 37°52' E 023°33'714.4
2017-Sep-12 13:30N 37°47' E 023°27'3 5.5
2017-Sep-12 13:00N 37°45' E 023°25'3 6.8
2017-Sep-12 12:30N 37°48' E 023°27'714.4
2017-Sep-12 12:00N 37°53' E 023°34'510.6
2017-Sep-12 11:30N 37°57' E 023°38'0 0.1
2017-Sep-12 11:00N 37°57' E 023°38'612.1
2017-Sep-12 10:31N 37°52' E 023°33'714.4
2017-Sep-12 10:01N 37°47' E 023°27'3 5.3
2017-Sep-12 09:30N 37°45' E 023°25'3 5.9
2017-Sep-12 09:00N 37°47' E 023°27'714.5
2017-Sep-12 08:30N 37°52' E 023°34'611.4
2017-Sep-12 08:00N 37°57' E 023°38'0 0.0
2017-Sep-12 07:30N 37°57' E 023°38'3 5.2
2017-Sep-12 07:00N 37°55' E 023°36'714.2
2017-Sep-12 06:30N 37°49' E 023°30'612.1
2017-Sep-12 06:00N 37°45' E 023°25'0 0.5
2017-Sep-12 05:31N 37°45' E 023°25'713.3
2017-Sep-12 05:00N 37°50' E 023°31'714.4
2017-Sep-12 04:31N 37°55' E 023°36'2 4.3
2017-Sep-12 04:00N 37°57' E 023°38'0 0.0
2017-Sep-12 03:30N 37°57' E 023°38'0 0.0
2017-Sep-11 18:35N 37°57' E 023°38'0 0.0
2017-Sep-11 18:30N 37°57' E 023°38'3 5.2
2017-Sep-11 18:00N 37°55' E 023°36'714.5
2017-Sep-11 17:31N 37°49' E 023°30'611.5
2017-Sep-11 17:00N 37°45' E 023°25'0 0.1
2017-Sep-11 16:30N 37°45' E 023°25'611.0
2017-Sep-11 16:00N 37°49' E 023°30'714.4
2017-Sep-11 15:30N 37°55' E 023°35'3 6.4
2017-Sep-11 15:00N 37°57' E 023°38'0 0.0
2017-Sep-11 14:30N 37°57' E 023°38'0 0.0
2017-Sep-11 14:00N 37°57' E 023°38'0 0.0
2017-Sep-11 13:30N 37°57' E 023°38'3 5.2
2017-Sep-11 13:01N 37°55' E 023°36'714.5
2017-Sep-11 12:30N 37°49' E 023°30'612.0
2017-Sep-11 12:00N 37°45' E 023°25'4 8.0
2017-Sep-11 11:30N 37°41' E 023°25'710.0
2017-Sep-11 10:50N 37°34' E 023°24'4 4.9
2017-Sep-11 09:56N 37°30' E 023°27'3 7.5
2017-Sep-11 09:30N 37°33' E 023°25'4 8.2
2017-Sep-11 09:00N 37°37' E 023°25'714.5
2017-Sep-11 08:30N 37°44' E 023°25'4 7.1
2017-Sep-11 08:00N 37°47' E 023°27'714.5
2017-Sep-11 07:30N 37°53' E 023°33'611.4
2017-Sep-11 07:01N 37°57' E 023°38'0 0.0
2017-Sep-11 06:30N 37°57' E 023°38'0 0.0
2017-Sep-10 20:31N 37°57' E 023°38'0 0.6
2017-Sep-10 20:30N 37°57' E 023°38'3 6.1
2017-Sep-10 20:01N 37°55' E 023°36'714.3
2017-Sep-10 19:30N 37°49' E 023°30'611.0
2017-Sep-10 19:00N 37°45' E 023°25'0 0.0
2017-Sep-10 18:30N 37°45' E 023°25'510.6
2017-Sep-10 18:00N 37°49' E 023°29'714.6
2017-Sep-10 17:30N 37°54' E 023°36'3 6.5
2017-Sep-10 17:00N 37°57' E 023°39'3 6.2
2017-Sep-10 16:31N 37°55' E 023°36'714.3
2017-Sep-10 16:01N 37°49' E 023°30'611.1
2017-Sep-10 15:30N 37°45' E 023°25'0 0.0
2017-Sep-10 15:00N 37°45' E 023°25'10 9.9
2017-Sep-10 14:00N 37°35' E 023°24'510.8
2017-Sep-10 13:30N 37°30' E 023°27'0 0.2
2017-Sep-10 13:01N 37°30' E 023°27'0 0.0
2017-Sep-10 12:30N 37°30' E 023°27'0 0.0
2017-Sep-10 12:00N 37°30' E 023°27'0 0.0
2017-Sep-10 11:30N 37°30' E 023°27'0 0.0
2017-Sep-10 11:00N 37°30' E 023°27'0 0.0
2017-Sep-10 10:30N 37°30' E 023°27'0 0.0
2017-Sep-10 10:00N 37°30' E 023°27'3 5.5
2017-Sep-10 09:30N 37°32' E 023°25'4 8.0
2017-Sep-10 09:01N 37°36' E 023°25'714.8
2017-Sep-10 08:30N 37°44' E 023°25'3 6.3
2017-Sep-10 08:00N 37°47' E 023°26'714.5
2017-Sep-10 07:30N 37°52' E 023°33'713.4
2017-Sep-10 07:00N 37°57' E 023°38'0 0.0
2017-Sep-10 06:30N 37°57' E 023°38'  

Dump ship's entire track history